Time;durP1;ratioP1;P1;durP2;ratioP2;P2;SDS_P1;SDS_P2;PMS_P1;PMS_P2;Temp;Humidity;BMP_temperature;BMP_pressure;BME280_temperature;BME280_humidity;BME280_pressure;Samples;Min_cycle;Max_cycle;Signal;HPM_P1;HPM_P2
2022/05/15 00:00:37;;;;;;;68.32;52.60;;;28.90;99.90;;;;;;5115705;28;20444;-63
2022/05/15 00:03:19;;;;;;;69.75;51.60;;;28.80;99.90;;;;;;5115695;28;20024;-62
2022/05/15 00:05:50;;;;;;;63.45;49.20;;;28.80;99.90;;;;;;5115455;28;20028;-62
2022/05/15 00:08:17;;;;;;;62.93;49.00;;;28.90;99.90;;;;;;5115589;28;20020;-63
2022/05/15 00:10:44;;;;;;;63.60;45.53;;;29.00;99.90;;;;;;5115595;28;20027;-63
2022/05/15 00:13:11;;;;;;;56.40;42.20;;;29.00;99.90;;;;;;5115322;28;20054;-64
2022/05/15 00:15:38;;;;;;;62.35;41.60;;;29.00;99.90;;;;;;5115418;28;20023;-62
2022/05/15 00:18:06;;;;;;;54.03;44.83;;;29.10;99.90;;;;;;5115519;28;20050;-62
2022/05/15 00:20:34;;;;;;;212.77;140.73;;;29.10;99.90;;;;;;5115527;28;20468;-62
2022/05/15 00:23:01;;;;;;;98.30;69.93;;;29.20;99.90;;;;;;5115259;28;20123;-63
2022/05/15 00:25:30;;;;;;;64.35;52.25;;;29.20;99.90;;;;;;5115451;28;20034;-63
2022/05/15 00:27:58;;;;;;;86.72;72.38;;;29.20;99.90;;;;;;5115055;28;20027;-62
2022/05/15 00:30:25;;;;;;;93.78;74.35;;;29.30;99.90;;;;;;5115076;28;20035;-64
2022/05/15 00:32:52;;;;;;;86.20;62.92;;;29.30;99.90;;;;;;5115094;28;20030;-63
2022/05/15 00:35:18;;;;;;;72.80;50.72;;;29.30;99.90;;;;;;5115112;28;20072;-63
2022/05/15 00:37:46;;;;;;;82.53;57.63;;;29.40;99.90;;;;;;5114999;28;20119;-62
2022/05/15 00:40:14;;;;;;;76.10;54.40;;;29.40;99.90;;;;;;5114798;28;20092;-63
2022/05/15 00:42:42;;;;;;;60.58;43.53;;;29.50;99.90;;;;;;5114835;28;20027;-62
2022/05/15 00:45:10;;;;;;;66.47;46.88;;;29.50;99.90;;;;;;5114898;28;20027;-63
2022/05/15 00:47:36;;;;;;;56.03;39.03;;;29.50;99.90;;;;;;5114709;28;20391;-62
2022/05/15 00:50:10;;;;;;;52.72;35.58;;;29.60;99.90;;;;;;5114764;28;20024;-63
2022/05/15 00:52:41;;;;;;;43.50;29.45;;;29.60;99.90;;;;;;5114791;28;20045;-63
2022/05/15 00:55:21;;;;;;;319.40;254.02;;;29.70;99.90;;;;;;5114711;28;20487;-63
2022/05/15 00:57:55;;;;;;;39.72;27.02;;;29.70;99.90;;;;;;5114642;28;20039;-63
2022/05/15 01:00:26;;;;;;;266.65;190.27;;;29.80;99.90;;;;;;5114495;28;20020;-63
2022/05/15 01:03:04;;;;;;;141.27;98.63;;;29.80;99.90;;;;;;5114427;28;20023;-62
2022/05/15 01:05:34;;;;;;;113.97;90.60;;;29.90;99.90;;;;;;5113807;28;20035;-62
2022/05/15 01:08:01;;;;;;;50.33;35.85;;;30.00;99.90;;;;;;5114607;28;20267;-63
2022/05/15 01:10:28;;;;;;;157.52;135.23;;;30.00;99.90;;;;;;5114788;28;20529;-63
2022/05/15 01:12:58;;;;;;;62.60;38.45;;;30.10;99.90;;;;;;5114093;28;20038;-62
2022/05/15 01:15:27;;;;;;;24.30;15.80;;;30.10;99.90;;;;;;5114301;28;20106;-63
2022/05/15 01:17:54;;;;;;;27.73;16.45;;;30.20;99.90;;;;;;5120195;27;20031;-63
2022/05/15 01:20:25;;;;;;;22.35;15.77;;;30.30;99.90;;;;;;5114404;28;20024;-62
2022/05/15 01:22:52;;;;;;;23.10;17.63;;;30.30;99.90;;;;;;5129420;27;20053;-63
2022/05/15 01:25:23;;;;;;;27.02;17.05;;;30.40;99.90;;;;;;5134663;27;20026;-63
2022/05/15 01:28:29;;;;;;;26.27;15.95;;;30.40;99.90;;;;;;5124283;27;20020;-63
2022/05/15 01:30:57;;;;;;;28.85;14.23;;;30.50;99.90;;;;;;5112192;28;20031;-63
2022/05/15 01:33:24;;;;;;;20.52;12.55;;;30.60;99.90;;;;;;5114312;28;20487;-63
2022/05/15 01:35:51;;;;;;;24.30;13.07;;;30.60;99.90;;;;;;5113715;28;20039;-63
2022/05/15 01:38:18;;;;;;;18.67;12.05;;;30.60;99.90;;;;;;5113862;28;20501;-63
2022/05/15 01:40:47;;;;;;;25.73;12.15;;;30.70;99.90;;;;;;5113960;28;20099;-65
2022/05/15 01:43:14;;;;;;;26.63;13.63;;;30.70;99.90;;;;;;5114072;28;20103;-62
2022/05/15 01:45:41;;;;;;;25.50;14.05;;;30.80;99.90;;;;;;5113772;28;20031;-63
2022/05/15 01:48:08;;;;;;;24.67;13.68;;;30.90;99.90;;;;;;5114072;28;20095;-64
2022/05/15 01:50:34;;;;;;;17.75;10.98;;;30.90;99.90;;;;;;5113877;28;20494;-64
2022/05/15 01:53:01;;;;;;;27.58;11.95;;;30.90;99.90;;;;;;5113826;28;20376;-65
2022/05/15 01:55:28;;;;;;;28.40;17.33;;;31.00;99.90;;;;;;5113863;28;20371;-65
2022/05/15 01:57:54;;;;;;;83.80;66.22;;;31.00;99.90;;;;;;5113653;28;20503;-63
2022/05/15 02:00:24;;;;;;;24.15;15.05;;;31.00;99.90;;;;;;5113766;28;20460;-64
2022/05/15 02:02:51;;;;;;;27.73;12.73;;;31.10;99.90;;;;;;5113594;28;20030;-67
2022/05/15 02:05:19;;;;;;;23.23;13.55;;;31.20;99.90;;;;;;5121504;28;20055;-64
2022/05/15 02:07:48;;;;;;;43.60;23.55;;;31.20;99.90;;;;;;5134198;28;20032;-63
2022/05/15 02:10:15;;;;;;;52.47;38.17;;;31.30;99.90;;;;;;5122756;28;20046;-63
2022/05/15 02:12:42;;;;;;;50.70;34.33;;;31.30;99.90;;;;;;5126785;28;20563;-62
2022/05/15 02:15:09;;;;;;;103.80;72.45;;;31.30;99.90;;;;;;5131487;28;20023;-65
2022/05/15 02:17:36;;;;;;;21.90;14.00;;;31.40;99.90;;;;;;5135127;27;20394;-61
2022/05/15 02:20:04;;;;;;;34.97;27.60;;;31.50;99.90;;;;;;5136064;27;20029;-63
2022/05/15 02:22:31;;;;;;;39.17;21.60;;;31.50;99.90;;;;;;5134261;27;20042;-65
2022/05/15 02:24:58;;;;;;;25.73;17.90;;;31.50;99.90;;;;;;5136293;27;20495;-63
2022/05/15 02:27:25;;;;;;;26.48;22.42;;;31.60;99.90;;;;;;5138143;27;20026;-63
2022/05/15 02:29:51;;;;;;;22.60;13.48;;;31.60;99.90;;;;;;5134058;27;20055;-63
2022/05/15 02:32:18;;;;;;;53.03;40.17;;;31.60;99.90;;;;;;5136375;27;20042;-64
2022/05/15 02:34:45;;;;;;;52.55;41.50;;;31.50;99.90;;;;;;5134794;27;20434;-62
2022/05/15 02:37:11;;;;;;;56.53;40.85;;;31.60;99.90;;;;;;5136620;27;20032;-63
2022/05/15 02:39:38;;;;;;;54.58;40.40;;;31.70;99.90;;;;;;5135947;27;20070;-63
2022/05/15 02:42:05;;;;;;;48.83;36.85;;;31.80;99.90;;;;;;5137453;27;20478;-64
2022/05/15 02:44:32;;;;;;;51.70;39.42;;;31.80;99.90;;;;;;5134897;27;20102;-64
2022/05/15 02:46:59;;;;;;;74.45;55.80;;;31.90;99.90;;;;;;5136947;27;20019;-65
2022/05/15 02:52:12;;;;;;;57.60;38.40;;;31.80;99.90;;;;;;5133053;27;20065;-66
2022/05/15 02:54:39;;;;;;;29.25;19.63;;;31.90;99.90;;;;;;5135808;27;20015;-65
2022/05/15 02:57:07;;;;;;;22.65;15.15;;;31.90;99.90;;;;;;5136232;27;20122;-63
2022/05/15 02:59:34;;;;;;;30.88;20.90;;;32.00;99.90;;;;;;5135539;27;20376;-63
2022/05/15 03:02:01;;;;;;;32.20;23.02;;;32.00;99.90;;;;;;5132957;27;20043;-62
2022/05/15 03:04:28;;;;;;;39.42;27.95;;;32.00;99.90;;;;;;5135666;27;20023;-62
2022/05/15 03:06:55;;;;;;;33.05;23.48;;;32.00;99.90;;;;;;5136336;27;20191;-64
2022/05/15 03:09:22;;;;;;;24.67;15.45;;;32.10;99.90;;;;;;5135081;27;20027;-62
2022/05/15 03:11:49;;;;;;;20.00;14.93;;;32.20;99.70;;;;;;5133753;27;20463;-63
2022/05/15 03:14:15;;;;;;;43.17;29.65;;;32.20;99.90;;;;;;5135637;27;20027;-65
2022/05/15 03:16:42;;;;;;;22.85;15.40;;;32.10;99.90;;;;;;5136191;27;20091;-63
2022/05/15 03:19:09;;;;;;;12.57;9.35;;;32.20;99.90;;;;;;5136319;27;20375;-63
2022/05/15 03:21:37;;;;;;;15.38;11.15;;;32.30;99.10;;;;;;5134517;27;20204;-62
2022/05/15 03:24:09;;;;;;;49.03;28.83;;;32.30;98.20;;;;;;5135215;27;20019;-64
2022/05/15 03:26:39;;;;;;;41.60;26.15;;;32.40;99.00;;;;;;5134263;27;20052;-65
2022/05/15 03:29:06;;;;;;;47.17;30.60;;;32.50;98.70;;;;;;5135865;27;20752;-62
2022/05/15 03:31:35;;;;;;;37.38;26.15;;;32.50;98.20;;;;;;5133383;27;20019;-61
2022/05/15 03:34:04;;;;;;;33.10;19.92;;;32.50;98.00;;;;;;5134281;27;20080;-62
2022/05/15 03:36:32;;;;;;;23.08;16.13;;;32.50;98.30;;;;;;5135641;27;20027;-61
2022/05/15 03:38:59;;;;;;;24.20;14.55;;;32.50;98.50;;;;;;5129948;27;20163;-64
2022/05/15 03:41:27;;;;;;;21.05;13.60;;;32.40;98.30;;;;;;5135562;27;20015;-65
2022/05/15 03:43:54;;;;;;;25.52;14.88;;;32.40;98.60;;;;;;5133033;27;20023;-63
2022/05/15 03:46:21;;;;;;;22.13;13.77;;;32.40;98.60;;;;;;5135763;27;20023;-65
2022/05/15 03:48:47;;;;;;;23.08;15.13;;;32.60;98.10;;;;;;5134370;27;20520;-63
2022/05/15 03:51:16;;;;;;;26.77;19.08;;;32.80;96.70;;;;;;5133502;27;20471;-62
2022/05/15 03:53:43;;;;;;;31.25;18.30;;;32.80;96.60;;;;;;5134145;27;20035;-64
2022/05/15 03:56:10;;;;;;;15.23;11.07;;;32.90;96.20;;;;;;5132357;27;20084;-66
2022/05/15 03:58:38;;;;;;;16.55;10.25;;;33.00;94.70;;;;;;5133729;27;20046;-62
2022/05/15 04:01:06;;;;;;;22.20;15.00;;;33.00;94.60;;;;;;5135330;27;20025;-62
2022/05/15 04:03:33;;;;;;;20.88;15.27;;;33.00;95.10;;;;;;5134076;27;20019;-63
2022/05/15 04:06:00;;;;;;;24.15;14.90;;;33.00;96.00;;;;;;5135700;27;20054;-63
2022/05/15 04:08:27;;;;;;;36.33;18.05;;;33.10;95.30;;;;;;5130647;27;20026;-63
2022/05/15 04:10:56;;;;;;;29.98;18.42;;;33.20;94.80;;;;;;5135141;27;20023;-65
2022/05/15 04:13:23;;;;;;;25.02;15.88;;;33.20;95.00;;;;;;5132426;27;20027;-65
2022/05/15 04:15:50;;;;;;;15.85;11.43;;;33.40;94.40;;;;;;5132345;27;20035;-65
2022/05/15 04:18:17;;;;;;;16.15;11.00;;;33.40;93.00;;;;;;5135432;27;20023;-63
2022/05/15 04:20:44;;;;;;;21.23;15.15;;;33.30;93.10;;;;;;5134845;27;20019;-62
2022/05/15 04:23:10;;;;;;;17.10;12.98;;;33.30;93.30;;;;;;5133147;27;20020;-63
2022/05/15 04:25:37;;;;;;;17.08;12.25;;;33.40;93.40;;;;;;5134318;27;20030;-62
2022/05/15 04:28:04;;;;;;;17.33;13.48;;;33.50;91.90;;;;;;5133996;27;20045;-62
2022/05/15 04:30:30;;;;;;;18.83;14.02;;;33.50;92.60;;;;;;5134869;27;20027;-64
2022/05/15 04:32:57;;;;;;;16.50;13.15;;;33.50;91.90;;;;;;5133425;27;20023;-65
2022/05/15 04:35:24;;;;;;;18.42;14.50;;;33.40;92.20;;;;;;5133644;27;20019;-63
2022/05/15 04:37:51;;;;;;;22.25;15.88;;;33.40;91.80;;;;;;5133093;27;20560;-64
2022/05/15 04:40:20;;;;;;;17.17;14.15;;;33.40;92.40;;;;;;5133569;27;20025;-65
2022/05/15 04:42:47;;;;;;;43.67;29.85;;;33.60;91.20;;;;;;5133683;27;20026;-65
2022/05/15 04:45:13;;;;;;;36.38;24.90;;;33.60;91.30;;;;;;5133757;27;20034;-63
2022/05/15 04:47:40;;;;;;;27.88;20.42;;;33.40;91.80;;;;;;5133852;27;20496;-65
2022/05/15 04:50:07;;;;;;;24.90;17.55;;;33.60;91.90;;;;;;5134879;27;20020;-62
2022/05/15 04:52:34;;;;;;;26.27;18.92;;;33.60;90.70;;;;;;5134187;27;20035;-65
2022/05/15 04:55:01;;;;;;;22.85;17.85;;;33.70;90.60;;;;;;5135159;27;20156;-63
2022/05/15 04:57:28;;;;;;;27.13;22.02;;;33.70;89.30;;;;;;5133340;27;20540;-63
2022/05/15 04:59:54;;;;;;;35.08;20.40;;;33.80;90.00;;;;;;5133565;27;20023;-63
2022/05/15 05:02:21;;;;;;;26.92;18.05;;;33.80;90.60;;;;;;5134871;27;20015;-64
2022/05/15 05:04:47;;;;;;;27.35;19.55;;;33.90;89.20;;;;;;5129548;27;20027;-66
2022/05/15 05:07:14;;;;;;;26.23;18.95;;;33.90;90.00;;;;;;5134840;27;20072;-63
2022/05/15 05:09:41;;;;;;;24.58;19.77;;;34.00;90.20;;;;;;5135011;27;20027;-64
2022/05/15 05:12:08;;;;;;;27.38;20.92;;;34.10;91.10;;;;;;5132283;27;20036;-63
2022/05/15 05:14:35;;;;;;;27.10;21.90;;;34.10;90.10;;;;;;5129571;27;20035;-63
2022/05/15 05:17:02;;;;;;;25.67;21.25;;;34.10;90.50;;;;;;5133985;27;20023;-62
2022/05/15 05:19:29;;;;;;;25.60;20.65;;;34.10;90.90;;;;;;5134058;27;20023;-63
2022/05/15 05:21:55;;;;;;;26.70;20.92;;;33.80;90.30;;;;;;5132306;27;20058;-65
2022/05/15 05:24:22;;;;;;;23.80;20.77;;;33.70;90.70;;;;;;5130953;27;20011;-65
2022/05/15 05:26:49;;;;;;;22.13;18.95;;;33.60;90.60;;;;;;5134010;27;20434;-64
2022/05/15 05:29:15;;;;;;;26.70;21.42;;;33.60;90.00;;;;;;5135053;27;20023;-66
2022/05/15 05:31:42;;;;;;;25.02;20.52;;;33.60;89.50;;;;;;5132905;27;20031;-63
2022/05/15 05:34:09;;;;;;;25.20;19.23;;;33.60;90.20;;;;;;5128050;27;20016;-63
2022/05/15 05:36:35;;;;;;;28.23;21.73;;;33.50;90.80;;;;;;5122901;27;20066;-63
2022/05/15 05:39:03;;;;;;;29.35;22.73;;;33.50;90.60;;;;;;5117506;27;20532;-67
2022/05/15 05:41:29;;;;;;;32.10;21.20;;;33.40;90.60;;;;;;5120830;27;20384;-66
2022/05/15 05:43:56;;;;;;;45.17;34.42;;;33.40;90.90;;;;;;5118525;28;20028;-63
2022/05/15 05:46:23;;;;;;;39.67;29.80;;;33.40;91.20;;;;;;5124918;27;20376;-66
2022/05/15 05:48:49;;;;;;;22.27;18.15;;;33.50;90.90;;;;;;5134310;27;20031;-66
2022/05/15 05:51:16;;;;;;;49.28;38.70;;;33.60;90.00;;;;;;5130167;27;20098;-65
2022/05/15 05:53:43;;;;;;;31.50;24.85;;;33.70;90.50;;;;;;5124241;27;20072;-65
2022/05/15 05:56:10;;;;;;;54.30;45.50;;;33.70;90.40;;;;;;5133765;27;20031;-66
2022/05/15 05:58:37;;;;;;;31.98;25.38;;;33.70;90.30;;;;;;5132812;28;20399;-65
2022/05/15 06:01:04;;;;;;;24.52;19.48;;;33.70;88.90;;;;;;5130981;28;20023;-63
2022/05/15 06:06:07;;;;;;;25.45;20.90;;;33.60;88.90;;;;;;5130277;28;20043;-65
2022/05/15 06:08:34;;;;;;;44.15;37.15;;;33.60;90.20;;;;;;5133892;28;20031;-62
2022/05/15 06:11:01;;;;;;;29.55;24.98;;;33.60;91.00;;;;;;5134128;28;20089;-64
2022/05/15 06:13:27;;;;;;;31.98;22.23;;;33.70;89.30;;;;;;5133467;28;20019;-63
2022/05/15 06:15:55;;;;;;;36.00;24.58;;;33.80;89.00;;;;;;5133579;28;20102;-64
2022/05/15 06:18:22;;;;;;;27.48;21.10;;;33.80;87.20;;;;;;5132808;28;20027;-62
2022/05/15 06:20:48;;;;;;;25.08;19.25;;;33.90;87.70;;;;;;5133555;28;20375;-63
2022/05/15 06:23:15;;;;;;;21.77;18.38;;;33.80;87.10;;;;;;5132173;28;20161;-63
2022/05/15 06:25:42;;;;;;;26.42;18.90;;;33.80;86.70;;;;;;5128901;28;20106;-62
2022/05/15 06:28:09;;;;;;;23.77;18.65;;;33.90;88.60;;;;;;5133079;28;20106;-62
2022/05/15 06:30:37;;;;;;;25.92;18.98;;;33.90;87.80;;;;;;5131563;28;20534;-63
2022/05/15 06:33:05;;;;;;;25.83;18.13;;;34.10;88.30;;;;;;5132211;28;20027;-62
2022/05/15 06:35:33;;;;;;;23.33;18.77;;;34.20;86.60;;;;;;5129605;28;20042;-63
2022/05/15 06:38:02;;;;;;;26.95;20.25;;;34.30;86.80;;;;;;5131015;28;20058;-60
2022/05/15 06:40:29;;;;;;;24.40;19.83;;;34.40;86.90;;;;;;5131036;28;20057;-62
2022/05/15 06:42:57;;;;;;;22.65;18.98;;;34.40;86.30;;;;;;5131389;28;20564;-63
2022/05/15 06:45:25;;;;;;;22.98;18.58;;;34.20;84.20;;;;;;5130872;28;20019;-63
2022/05/15 06:47:52;;;;;;;21.60;19.30;;;34.10;85.70;;;;;;5130452;27;20038;-64
2022/05/15 06:50:19;;;;;;;24.35;20.00;;;34.10;86.50;;;;;;5130871;28;20429;-64
2022/05/15 06:52:46;;;;;;;27.55;20.67;;;34.30;87.20;;;;;;5130586;28;20031;-63
2022/05/15 06:55:16;;;;;;;20.60;18.48;;;34.40;87.70;;;;;;5130726;28;20042;-64
2022/05/15 06:57:47;;;;;;;24.40;19.23;;;34.50;85.70;;;;;;5129574;28;20061;-64
2022/05/15 07:00:18;;;;;;;21.33;19.08;;;34.40;84.30;;;;;;5094547;22;20056;-64
2022/05/15 07:02:46;;;;;;;26.80;19.17;;;34.30;84.80;;;;;;5083607;28;20035;-62
2022/05/15 07:05:17;;;;;;;26.83;20.90;;;34.30;84.20;;;;;;5084086;28;20042;-63
2022/05/15 07:07:44;;;;;;;24.00;17.95;;;34.20;84.20;;;;;;5085954;28;20162;-63
2022/05/15 07:10:11;;;;;;;28.38;23.40;;;34.10;83.50;;;;;;5083828;28;20081;-63
2022/05/15 07:12:38;;;;;;;25.35;21.25;;;34.10;85.30;;;;;;5087739;28;20082;-62
2022/05/15 07:15:07;;;;;;;29.70;24.02;;;34.20;85.50;;;;;;5094875;28;20431;-63
2022/05/15 07:17:33;;;;;;;25.10;21.17;;;34.20;87.00;;;;;;5094351;28;20036;-62
2022/05/15 07:20:00;;;;;;;26.10;21.40;;;34.40;86.40;;;;;;5094823;28;20054;-63
2022/05/15 07:22:28;;;;;;;69.60;57.88;;;34.50;83.60;;;;;;5093143;28;20048;-65
2022/05/15 07:24:54;;;;;;;41.40;30.55;;;34.50;84.00;;;;;;5094132;28;20038;-63
2022/05/15 07:27:21;;;;;;;34.88;23.65;;;34.50;85.40;;;;;;5095240;28;20024;-62
2022/05/15 07:29:48;;;;;;;28.02;21.73;;;34.50;84.40;;;;;;5094733;28;20082;-63
2022/05/15 07:32:14;;;;;;;23.05;20.38;;;34.40;84.80;;;;;;5093862;28;20039;-62
2022/05/15 07:34:42;;;;;;;31.65;22.98;;;34.20;82.40;;;;;;5094408;28;20392;-63
2022/05/15 07:37:11;;;;;;;22.70;18.63;;;34.10;82.00;;;;;;5094234;28;20033;-63
2022/05/15 07:39:38;;;;;;;24.13;20.17;;;34.10;82.60;;;;;;5094922;28;20031;-63
2022/05/15 07:42:05;;;;;;;20.35;18.15;;;34.10;82.50;;;;;;5094594;28;20035;-65
2022/05/15 07:44:31;;;;;;;27.77;23.67;;;34.00;82.50;;;;;;5093007;28;20030;-64
2022/05/15 07:46:58;;;;;;;30.83;20.95;;;33.90;82.20;;;;;;5095041;28;20080;-63
2022/05/15 07:49:25;;;;;;;18.38;16.38;;;33.90;81.70;;;;;;5094732;28;20066;-63
2022/05/15 07:51:52;;;;;;;19.45;17.33;;;33.90;80.80;;;;;;5094208;28;20105;-64
2022/05/15 07:54:19;;;;;;;21.58;17.13;;;33.90;81.30;;;;;;5094075;28;20107;-64
2022/05/15 07:56:46;;;;;;;23.05;17.40;;;33.90;82.00;;;;;;5091617;28;20024;-62
2022/05/15 07:59:14;;;;;;;25.27;18.15;;;33.80;81.10;;;;;;5092094;28;20056;-63
2022/05/15 08:01:42;;;;;;;20.42;17.80;;;33.90;82.50;;;;;;5093067;28;20103;-63
2022/05/15 08:04:09;;;;;;;19.65;16.35;;;33.90;82.90;;;;;;5093491;28;20056;-64
2022/05/15 08:09:11;;;;;;;39.35;27.95;;;34.10;82.80;;;;;;5092957;28;20425;-63
2022/05/15 08:11:37;;;;;;;47.58;33.63;;;34.10;82.90;;;;;;5093399;28;20443;-63
2022/05/15 08:14:08;;;;;;;40.00;28.52;;;34.10;81.70;;;;;;5094466;28;20031;-63
2022/05/15 08:16:36;;;;;;;54.45;31.70;;;34.20;81.80;;;;;;5094619;28;20028;-62
2022/05/15 08:24:40;;;;;;;107.07;67.85;;;34.60;79.80;;;;;;5092204;28;20122;-64
2022/05/15 08:27:09;;;;;;;118.10;69.53;;;34.70;79.80;;;;;;5088919;28;20024;-62
2022/05/15 08:29:37;;;;;;;85.10;60.15;;;34.60;75.20;;;;;;5091837;28;20067;-65
2022/05/15 08:32:05;;;;;;;55.10;47.15;;;34.60;79.00;;;;;;5092097;28;20380;-63
2022/05/15 08:34:32;;;;;;;40.63;36.05;;;34.70;79.40;;;;;;5093328;28;20062;-62
2022/05/15 08:37:01;;;;;;;47.50;37.75;;;34.70;77.60;;;;;;5094105;28;20454;-63
2022/05/15 08:39:29;;;;;;;36.00;29.65;;;34.60;75.60;;;;;;5092002;28;20491;-64
2022/05/15 08:42:09;;;;;;;39.22;31.52;;;34.50;75.80;;;;;;5094828;28;20031;-63
2022/05/15 08:44:42;;;;;;;43.85;37.05;;;34.50;77.80;;;;;;5096220;28;20396;-63
2022/05/15 08:47:13;;;;;;;45.83;37.55;;;34.50;76.50;;;;;;5092081;28;20028;-63
2022/05/15 08:49:49;;;;;;;101.22;75.10;;;34.40;78.00;;;;;;5094465;28;20054;-65
2022/05/15 08:52:18;;;;;;;141.30;94.97;;;34.40;76.30;;;;;;5094732;28;20469;-61
2022/05/15 08:55:06;;;;;;;160.65;121.60;;;34.30;77.90;;;;;;5092878;28;20074;-65
2022/05/15 08:57:37;;;;;;;92.15;75.70;;;34.30;77.30;;;;;;5090113;28;20040;-64
2022/05/15 09:00:10;;;;;;;121.25;99.22;;;34.30;79.00;;;;;;5091214;28;20048;-63
2022/05/15 09:02:40;;;;;;;203.90;178.68;;;34.30;77.70;;;;;;5070748;28;20084;-64
2022/05/15 09:05:08;;;;;;;101.97;82.57;;;34.30;77.10;;;;;;5094017;28;20389;-65
2022/05/15 09:07:36;;;;;;;323.77;250.65;;;34.20;76.60;;;;;;5094195;28;20024;-63
2022/05/15 09:10:20;;;;;;;107.80;78.35;;;34.30;77.20;;;;;;5093886;28;20031;-63
2022/05/15 09:12:54;;;;;;;271.35;207.48;;;34.20;77.20;;;;;;5092665;28;20111;-64
2022/05/15 09:15:26;;;;;;;71.60;58.92;;;34.10;76.70;;;;;;5093754;28;20062;-62
2022/05/15 09:18:02;;;;;;;77.03;61.95;;;34.20;79.50;;;;;;5090544;28;20047;-63
2022/05/15 09:20:37;;;;;;;48.70;40.03;;;34.20;78.60;;;;;;5093575;28;20362;-61
2022/05/15 09:23:23;;;;;;;68.72;57.53;;;34.20;78.80;;;;;;5093302;28;20524;-62
2022/05/15 09:26:10;;;;;;;52.65;42.17;;;34.20;80.70;;;;;;5092261;28;20035;-64
2022/05/15 09:29:00;;;;;;;39.20;31.88;;;34.20;81.60;;;;;;5090896;28;20056;-62
2022/05/15 09:31:38;;;;;;;39.17;31.70;;;34.30;78.90;;;;;;5088696;28;20040;-62
2022/05/15 09:34:27;;;;;;;85.60;71.35;;;34.30;79.10;;;;;;5087912;28;20123;-65
2022/05/15 09:39:45;;;;;;;59.88;47.72;;;34.20;80.80;;;;;;5050622;28;20070;-63
2022/05/15 09:45:25;;;;;;;48.97;39.33;;;34.30;81.10;;;;;;5049895;28;20494;-65
2022/05/15 09:47:52;;;;;;;55.53;45.75;;;34.20;82.60;;;;;;5046534;28;20422;-65
2022/05/15 09:50:40;;;;;;;42.78;33.67;;;34.20;81.80;;;;;;5051300;28;20025;-63
2022/05/15 09:53:23;;;;;;;42.25;34.30;;;34.20;82.00;;;;;;5048951;28;20180;-62
2022/05/15 09:56:04;;;;;;;43.90;34.35;;;34.20;83.20;;;;;;5052953;28;20046;-62
2022/05/15 09:58:42;;;;;;;39.50;34.85;;;34.20;82.80;;;;;;5051806;28;20024;-65
2022/05/15 10:01:12;;;;;;;33.15;27.60;;;34.10;83.70;;;;;;5046146;28;20029;-63
2022/05/15 10:03:39;;;;;;;37.72;30.17;;;34.10;83.00;;;;;;5043743;28;20200;-65
2022/05/15 10:06:09;;;;;;;35.03;28.98;;;34.10;83.60;;;;;;5045046;28;20108;-63
2022/05/15 10:08:37;;;;;;;100.90;85.30;;;34.20;82.20;;;;;;5051042;28;20083;-64
2022/05/15 10:11:09;;;;;;;78.55;61.85;;;34.10;82.00;;;;;;5082159;28;20504;-63
2022/05/15 10:13:35;;;;;;;;;;;34.10;83.60;;;;;;5093224;28;20107;-64
2022/05/15 10:16:07;;;;;;;36.05;30.92;;;34.10;84.60;;;;;;5089505;28;19951;-64
2022/05/15 10:18:47;;;;;;;26.58;23.77;;;34.10;83.80;;;;;;5093684;28;20016;-63
2022/05/15 10:21:15;;;;;;;32.47;26.33;;;34.00;81.60;;;;;;5092330;28;20016;-64
2022/05/15 10:24:00;;;;;;;28.58;22.33;;;34.00;84.00;;;;;;5090875;28;20035;-65
2022/05/15 10:26:40;;;;;;;44.53;32.33;;;34.00;81.70;;;;;;5091241;28;20031;-65
2022/05/15 10:29:27;;;;;;;61.47;42.78;;;33.90;83.10;;;;;;5091892;28;20028;-65
2022/05/15 10:32:04;;;;;;;79.93;51.53;;;33.90;84.00;;;;;;5086630;28;20380;-62
2022/05/15 10:34:31;;;;;;;84.53;62.35;;;33.80;84.80;;;;;;5089508;28;20025;-63
2022/05/15 10:37:18;;;;;;;62.60;44.53;;;33.80;82.10;;;;;;5092027;28;20480;-64
2022/05/15 10:40:06;;;;;;;143.30;103.53;;;33.80;80.90;;;;;;5094861;28;20021;-63
2022/05/15 10:42:42;;;;;;;97.05;65.53;;;33.80;80.90;;;;;;5019505;28;20041;-63
2022/05/15 10:45:22;;;;;;;141.77;104.65;;;33.80;82.00;;;;;;5017797;28;20034;-64
2022/05/15 10:48:16;;;;;;;123.38;88.40;;;33.70;83.90;;;;;;5019274;28;20251;-64
2022/05/15 10:50:49;;;;;;;76.57;55.35;;;33.70;85.40;;;;;;5020906;28;20502;-63
2022/05/15 10:59:53;;;;;;;93.97;54.13;;;33.50;84.20;;;;;;5021133;28;20034;-63
2022/05/15 11:02:41;;;;;;;82.45;49.42;;;33.60;84.70;;;;;;4978057;28;20045;-63
2022/05/15 11:05:08;;;;;;;138.07;78.68;;;33.60;84.10;;;;;;4960321;28;20041;-65
2022/05/15 11:07:49;;;;;;;149.13;84.55;;;33.60;84.30;;;;;;4977721;28;20037;-64
2022/05/15 11:10:32;;;;;;;186.07;103.15;;;33.60;84.20;;;;;;4982296;28;20066;-65
2022/05/15 11:13:12;;;;;;;220.32;126.75;;;33.60;85.40;;;;;;4983048;28;20039;-64
2022/05/15 11:15:50;;;;;;;180.88;106.68;;;33.50;85.50;;;;;;4982857;28;20031;-64
2022/05/15 11:18:26;;;;;;;155.68;93.30;;;33.50;84.80;;;;;;4983531;28;20121;-63
2022/05/15 11:20:59;;;;;;;141.77;93.57;;;33.40;85.60;;;;;;5041936;28;20037;-63
2022/05/15 11:23:46;;;;;;;155.45;102.38;;;33.40;86.00;;;;;;5043850;28;20025;-63
2022/05/15 11:26:23;;;;;;;192.10;124.20;;;33.30;86.10;;;;;;5045796;28;20036;-64
2022/05/15 11:28:58;;;;;;;161.02;101.18;;;33.30;86.60;;;;;;5046632;28;20096;-63
2022/05/15 11:31:32;;;;;;;128.13;79.05;;;33.30;88.20;;;;;;5049760;28;20240;-63
2022/05/15 11:34:06;;;;;;;116.30;73.35;;;33.30;88.00;;;;;;5042711;28;20021;-62
2022/05/15 11:36:36;;;;;;;92.72;56.88;;;33.30;86.80;;;;;;5039861;28;20021;-63
2022/05/15 11:39:06;;;;;;;159.00;88.53;;;33.20;87.50;;;;;;5051502;28;20029;-65
2022/05/15 11:42:10;;;;;;;167.68;94.90;;;33.10;87.50;;;;;;5046598;28;20517;-62
2022/05/15 11:44:42;;;;;;;154.10;92.55;;;33.10;88.00;;;;;;5049796;28;20549;-64
2022/05/15 11:47:22;;;;;;;97.50;62.40;;;33.10;87.20;;;;;;5041438;28;20367;-62
2022/05/15 11:50:00;;;;;;;119.88;74.65;;;33.00;87.10;;;;;;5049743;28;20033;-65
2022/05/15 11:52:37;;;;;;;161.90;110.22;;;33.10;87.80;;;;;;5077174;28;20028;-64
2022/05/15 11:55:43;;;;;;;152.55;106.03;;;33.00;87.40;;;;;;5091489;28;20024;-63
2022/05/15 11:58:33;;;;;;;132.25;89.07;;;33.00;87.70;;;;;;5091813;28;20028;-64
2022/05/15 12:01:04;;;;;;;95.72;60.95;;;33.00;87.40;;;;;;5014991;28;20042;-64
2022/05/15 12:03:39;;;;;;;80.32;54.85;;;33.00;87.10;;;;;;5019060;28;20069;-64
2022/05/15 12:06:11;;;;;;;156.18;100.80;;;33.00;87.90;;;;;;5012166;28;20030;-64
2022/05/15 12:08:39;;;;;;;88.77;56.13;;;33.00;87.30;;;;;;5010648;28;20491;-65
2022/05/15 12:11:28;;;;;;;159.07;102.72;;;32.90;86.60;;;;;;5013263;28;20834;-63
2022/05/15 12:13:57;;;;;;;154.57;105.68;;;32.80;87.00;;;;;;5006443;28;20077;-66
2022/05/15 12:16:27;;;;;;;160.10;89.20;;;32.80;86.90;;;;;;5001612;28;20030;-64
2022/05/15 12:19:00;;;;;;;187.70;93.28;;;32.80;87.10;;;;;;5011792;28;20400;-67
2022/05/15 12:21:46;;;;;;;206.25;104.35;;;32.90;87.20;;;;;;5015860;28;20045;-65
2022/05/15 12:27:23;;;;;;;214.48;109.15;;;32.80;87.30;;;;;;5019649;28;20394;-63
2022/05/15 12:29:57;;;;;;;126.70;70.88;;;32.80;87.40;;;;;;5016699;28;20026;-64
2022/05/15 12:32:36;;;;;;;97.43;56.97;;;32.80;87.60;;;;;;5011901;28;20033;-64
2022/05/15 12:35:10;;;;;;;137.20;74.43;;;32.80;88.40;;;;;;5015376;28;20358;-63
2022/05/15 12:37:53;;;;;;;179.48;95.95;;;32.70;88.60;;;;;;5018083;28;20164;-62
2022/05/15 12:40:27;;;;;;;134.65;71.85;;;32.60;88.50;;;;;;5016971;28;20072;-63
2022/05/15 12:42:53;;;;;;;97.47;53.40;;;32.60;88.00;;;;;;5022560;28;20479;-64
2022/05/15 12:45:22;;;;;;;175.88;85.10;;;32.60;88.40;;;;;;5021811;28;20100;-63
2022/05/15 12:48:10;;;;;;;180.32;96.97;;;32.60;88.10;;;;;;5021966;28;20458;-62
2022/05/15 12:51:02;;;;;;;176.40;96.03;;;32.60;88.40;;;;;;5017433;28;20033;-63
2022/05/15 12:53:32;;;;;;;150.73;78.00;;;32.60;88.40;;;;;;4942725;29;20039;-62
2022/05/15 12:56:30;;;;;;;169.90;87.63;;;32.70;88.30;;;;;;4941720;29;20054;-62
2022/05/15 12:59:06;;;;;;;188.75;96.95;;;32.60;88.10;;;;;;5012644;28;20050;-61
2022/05/15 13:01:33;;;;;;;155.45;83.07;;;32.60;88.70;;;;;;5010623;28;20336;-61
2022/05/15 13:04:04;;;;;;;111.85;61.00;;;32.50;89.80;;;;;;5011409;28;20033;-61
2022/05/15 13:06:37;;;;;;;88.10;50.40;;;32.50;90.90;;;;;;5012492;28;20054;-61
2022/05/15 13:09:07;;;;;;;92.88;51.45;;;32.50;90.60;;;;;;5010329;28;20038;-61
2022/05/15 13:11:47;;;;;;;78.88;47.25;;;32.40;91.10;;;;;;5012513;28;20040;-61